sensor_id;sensor_type;location;lat;lon;timestamp;temperature;humidity
24091;DHT22;12272;52.426;17.100;2023-02-18T00:04:12;14.60;99.90
24091;DHT22;12272;52.426;17.100;2023-02-18T00:09:14;15.00;99.90
24091;DHT22;12272;52.426;17.100;2023-02-18T00:14:17;15.00;99.90
24091;DHT22;12272;52.426;17.100;2023-02-18T00:19:20;14.90;99.90
24091;DHT22;12272;52.426;17.100;2023-02-18T00:24:23;14.30;99.90
24091;DHT22;12272;52.426;17.100;2023-02-18T00:29:25;15.00;99.90
24091;DHT22;12272;52.426;17.100;2023-02-18T00:34:28;15.00;99.90
24091;DHT22;12272;52.426;17.100;2023-02-18T00:39:30;14.70;99.90
24091;DHT22;12272;52.426;17.100;2023-02-18T00:44:33;14.50;99.90
24091;DHT22;12272;52.426;17.100;2023-02-18T00:49:36;14.00;99.90
24091;DHT22;12272;52.426;17.100;2023-02-18T00:54:38;14.40;99.90
24091;DHT22;12272;52.426;17.100;2023-02-18T00:59:41;14.50;99.90
24091;DHT22;12272;52.426;17.100;2023-02-18T01:04:43;14.60;99.90
24091;DHT22;12272;52.426;17.100;2023-02-18T01:09:46;14.60;99.90
24091;DHT22;12272;52.426;17.100;2023-02-18T01:14:49;14.30;99.90
24091;DHT22;12272;52.426;17.100;2023-02-18T01:19:51;14.40;99.90
24091;DHT22;12272;52.426;17.100;2023-02-18T01:24:54;14.70;99.90
24091;DHT22;12272;52.426;17.100;2023-02-18T01:29:57;14.80;99.90
24091;DHT22;12272;52.426;17.100;2023-02-18T01:35:01;14.30;99.90
24091;DHT22;12272;52.426;17.100;2023-02-18T01:40:05;14.40;99.90
24091;DHT22;12272;52.426;17.100;2023-02-18T01:50:39;14.40;99.90
24091;DHT22;12272;52.426;17.100;2023-02-18T01:55:43;14.70;99.90
24091;DHT22;12272;52.426;17.100;2023-02-18T02:00:46;14.40;99.90
24091;DHT22;12272;52.426;17.100;2023-02-18T02:05:49;14.70;99.90
24091;DHT22;12272;52.426;17.100;2023-02-18T02:16:52;14.40;99.90
24091;DHT22;12272;52.426;17.100;2023-02-18T02:38:06;14.10;99.90
24091;DHT22;12272;52.426;17.100;2023-02-18T02:53:24;14.60;99.90
24091;DHT22;12272;52.426;17.100;2023-02-18T02:58:28;14.60;99.90
24091;DHT22;12272;52.426;17.100;2023-02-18T03:04:00;14.70;99.90
24091;DHT22;12272;52.426;17.100;2023-02-18T03:09:07;14.90;99.90
24091;DHT22;12272;52.426;17.100;2023-02-18T03:14:27;14.70;99.90
24091;DHT22;12272;52.426;17.100;2023-02-18T03:19:35;14.90;99.90
24091;DHT22;12272;52.426;17.100;2023-02-18T03:24:47;14.80;99.90
24091;DHT22;12272;52.426;17.100;2023-02-18T03:30:00;14.50;99.90
24091;DHT22;12272;52.426;17.100;2023-02-18T03:35:14;14.20;99.90
24091;DHT22;12272;52.426;17.100;2023-02-18T03:40:17;14.50;99.90
24091;DHT22;12272;52.426;17.100;2023-02-18T03:45:20;14.50;99.90
24091;DHT22;12272;52.426;17.100;2023-02-18T03:50:23;14.50;99.90
24091;DHT22;12272;52.426;17.100;2023-02-18T03:55:26;14.90;99.90
24091;DHT22;12272;52.426;17.100;2023-02-18T04:00:28;14.40;99.90
24091;DHT22;12272;52.426;17.100;2023-02-18T04:05:31;14.70;99.90
24091;DHT22;12272;52.426;17.100;2023-02-18T04:10:33;14.20;99.90
24091;DHT22;12272;52.426;17.100;2023-02-18T04:15:36;14.80;99.90
24091;DHT22;12272;52.426;17.100;2023-02-18T04:20:38;14.90;99.90
24091;DHT22;12272;52.426;17.100;2023-02-18T04:25:41;14.50;99.90
24091;DHT22;12272;52.426;17.100;2023-02-18T04:30:46;14.40;99.90
24091;DHT22;12272;52.426;17.100;2023-02-18T04:35:48;14.70;99.90
24091;DHT22;12272;52.426;17.100;2023-02-18T04:40:51;14.60;99.90
24091;DHT22;12272;52.426;17.100;2023-02-18T04:45:54;14.70;99.90
24091;DHT22;12272;52.426;17.100;2023-02-18T04:50:56;14.60;99.90
24091;DHT22;12272;52.426;17.100;2023-02-18T04:55:59;14.50;99.90
24091;DHT22;12272;52.426;17.100;2023-02-18T05:01:03;14.60;99.90
24091;DHT22;12272;52.426;17.100;2023-02-18T05:06:06;14.50;99.90
24091;DHT22;12272;52.426;17.100;2023-02-18T05:11:09;14.40;99.90
24091;DHT22;12272;52.426;17.100;2023-02-18T05:16:12;14.50;99.90
24091;DHT22;12272;52.426;17.100;2023-02-18T05:21:15;14.50;99.90
24091;DHT22;12272;52.426;17.100;2023-02-18T05:26:17;14.50;99.90
24091;DHT22;12272;52.426;17.100;2023-02-18T05:31:20;14.80;99.90
24091;DHT22;12272;52.426;17.100;2023-02-18T05:36:23;14.60;99.90
24091;DHT22;12272;52.426;17.100;2023-02-18T05:41:26;14.50;99.90
24091;DHT22;12272;52.426;17.100;2023-02-18T05:46:28;14.40;99.90
24091;DHT22;12272;52.426;17.100;2023-02-18T05:51:31;14.10;99.90
24091;DHT22;12272;52.426;17.100;2023-02-18T05:56:33;14.50;99.90
24091;DHT22;12272;52.426;17.100;2023-02-18T06:01:36;14.30;99.90
24091;DHT22;12272;52.426;17.100;2023-02-18T06:06:39;14.20;99.90
24091;DHT22;12272;52.426;17.100;2023-02-18T06:11:41;14.30;98.30
24091;DHT22;12272;52.426;17.100;2023-02-18T06:16:44;14.20;99.90
24091;DHT22;12272;52.426;17.100;2023-02-18T06:21:47;14.40;99.90
24091;DHT22;12272;52.426;17.100;2023-02-18T06:26:49;14.30;99.90
24091;DHT22;12272;52.426;17.100;2023-02-18T06:31:52;14.60;99.90
24091;DHT22;12272;52.426;17.100;2023-02-18T06:36:54;14.40;99.90
24091;DHT22;12272;52.426;17.100;2023-02-18T06:41:57;14.40;99.90
24091;DHT22;12272;52.426;17.100;2023-02-18T06:47:00;14.40;99.90
24091;DHT22;12272;52.426;17.100;2023-02-18T06:52:03;14.80;99.90
24091;DHT22;12272;52.426;17.100;2023-02-18T06:57:06;14.70;99.90
24091;DHT22;12272;52.426;17.100;2023-02-18T07:02:13;14.60;99.90
24091;DHT22;12272;52.426;17.100;2023-02-18T07:07:15;14.20;98.80
24091;DHT22;12272;52.426;17.100;2023-02-18T07:12:18;14.40;99.90
24091;DHT22;12272;52.426;17.100;2023-02-18T07:17:20;14.40;99.90
24091;DHT22;12272;52.426;17.100;2023-02-18T07:22:23;14.60;99.40
24091;DHT22;12272;52.426;17.100;2023-02-18T07:27:26;14.50;98.60
24091;DHT22;12272;52.426;17.100;2023-02-18T07:32:28;14.40;99.30
24091;DHT22;12272;52.426;17.100;2023-02-18T07:37:31;14.60;96.40
24091;DHT22;12272;52.426;17.100;2023-02-18T07:42:34;14.40;99.50
24091;DHT22;12272;52.426;17.100;2023-02-18T07:47:37;14.80;99.90
24091;DHT22;12272;52.426;17.100;2023-02-18T07:52:39;14.60;99.50
24091;DHT22;12272;52.426;17.100;2023-02-18T07:57:42;14.50;99.90
24091;DHT22;12272;52.426;17.100;2023-02-18T08:03:02;14.30;82.70
24091;DHT22;12272;52.426;17.100;2023-02-18T08:08:05;14.00;99.90
24091;DHT22;12272;52.426;17.100;2023-02-18T08:13:08;14.00;99.90
24091;DHT22;12272;52.426;17.100;2023-02-18T08:18:19;14.40;99.90
24091;DHT22;12272;52.426;17.100;2023-02-18T08:23:22;14.60;99.90
24091;DHT22;12272;52.426;17.100;2023-02-18T08:28:26;14.50;99.90
24091;DHT22;12272;52.426;17.100;2023-02-18T08:33:29;14.50;99.90
24091;DHT22;12272;52.426;17.100;2023-02-18T08:38:32;14.60;98.20
24091;DHT22;12272;52.426;17.100;2023-02-18T08:43:35;14.40;99.90
24091;DHT22;12272;52.426;17.100;2023-02-18T08:48:38;14.70;99.90
24091;DHT22;12272;52.426;17.100;2023-02-18T08:53:40;14.50;99.90
24091;DHT22;12272;52.426;17.100;2023-02-18T08:58:43;14.60;99.50
24091;DHT22;12272;52.426;17.100;2023-02-18T09:08:51;9.00;91.80
24091;DHT22;12272;52.426;17.100;2023-02-18T09:13:54;8.10;94.70
24091;DHT22;12272;52.426;17.100;2023-02-18T09:18:57;7.80;97.20
24091;DHT22;12272;52.426;17.100;2023-02-18T09:24:00;8.00;97.30
24091;DHT22;12272;52.426;17.100;2023-02-18T09:29:03;7.60;95.90
24091;DHT22;12272;52.426;17.100;2023-02-18T09:34:05;7.50;97.00
24091;DHT22;12272;52.426;17.100;2023-02-18T09:39:08;7.50;96.30
24091;DHT22;12272;52.426;17.100;2023-02-18T09:44:33;7.60;96.50
24091;DHT22;12272;52.426;17.100;2023-02-18T09:49:40;7.70;96.40
24091;DHT22;12272;52.426;17.100;2023-02-18T09:59:56;11.20;99.90
24091;DHT22;12272;52.426;17.100;2023-02-18T10:04:59;12.80;99.60
24091;DHT22;12272;52.426;17.100;2023-02-18T10:15:22;14.00;67.60
24091;DHT22;12272;52.426;17.100;2023-02-18T10:20:28;11.60;62.60
24091;DHT22;12272;52.426;17.100;2023-02-18T10:25:42;11.90;95.40
24091;DHT22;12272;52.426;17.100;2023-02-18T10:30:58;14.20;92.20
24091;DHT22;12272;52.426;17.100;2023-02-18T10:36:22;14.60;86.00
24091;DHT22;12272;52.426;17.100;2023-02-18T10:41:46;14.30;85.10
24091;DHT22;12272;52.426;17.100;2023-02-18T10:47:03;14.80;90.50
24091;DHT22;12272;52.426;17.100;2023-02-18T10:52:12;15.20;90.70
24091;DHT22;12272;52.426;17.100;2023-02-18T10:57:21;15.20;90.00
24091;DHT22;12272;52.426;17.100;2023-02-18T11:02:27;15.40;90.60
24091;DHT22;12272;52.426;17.100;2023-02-18T11:07:33;15.40;90.70
24091;DHT22;12272;52.426;17.100;2023-02-18T11:12:49;15.10;82.40
24091;DHT22;12272;52.426;17.100;2023-02-18T11:18:11;15.10;89.30
24091;DHT22;12272;52.426;17.100;2023-02-18T11:23:18;15.30;86.90
24091;DHT22;12272;52.426;17.100;2023-02-18T11:33:47;14.70;81.00
24091;DHT22;12272;52.426;17.100;2023-02-18T11:39:00;15.20;91.20
24091;DHT22;12272;52.426;17.100;2023-02-18T11:44:16;15.20;92.70
24091;DHT22;12272;52.426;17.100;2023-02-18T11:49:22;15.30;91.70
24091;DHT22;12272;52.426;17.100;2023-02-18T11:54:27;15.10;93.40
24091;DHT22;12272;52.426;17.100;2023-02-18T11:59:35;14.70;92.40
24091;DHT22;12272;52.426;17.100;2023-02-18T12:04:40;15.00;95.50
24091;DHT22;12272;52.426;17.100;2023-02-18T12:09:59;15.10;92.30
24091;DHT22;12272;52.426;17.100;2023-02-18T12:15:11;14.90;95.80
24091;DHT22;12272;52.426;17.100;2023-02-18T12:47:04;14.80;96.20
24091;DHT22;12272;52.426;17.100;2023-02-18T12:57:47;14.10;97.00
24091;DHT22;12272;52.426;17.100;2023-02-18T13:14:02;14.30;96.00
24091;DHT22;12272;52.426;17.100;2023-02-18T13:19:22;14.10;98.90
24091;DHT22;12272;52.426;17.100;2023-02-18T13:24:33;14.00;99.90
24091;DHT22;12272;52.426;17.100;2023-02-18T13:29:46;14.10;99.90
24091;DHT22;12272;52.426;17.100;2023-02-18T13:35:01;13.80;99.90
24091;DHT22;12272;52.426;17.100;2023-02-18T13:40:16;14.10;99.80
24091;DHT22;12272;52.426;17.100;2023-02-18T13:45:28;14.10;99.90
24091;DHT22;12272;52.426;17.100;2023-02-18T13:50:39;13.80;99.90
24091;DHT22;12272;52.426;17.100;2023-02-18T13:55:55;13.90;99.90
24091;DHT22;12272;52.426;17.100;2023-02-18T14:01:50;13.50;99.90
24091;DHT22;12272;52.426;17.100;2023-02-18T14:06:34;13.30;99.90
24091;DHT22;12272;52.426;17.100;2023-02-18T14:11:52;13.10;99.90
24091;DHT22;12272;52.426;17.100;2023-02-18T14:22:27;12.90;92.60
24091;DHT22;12272;52.426;17.100;2023-02-18T14:27:29;12.50;92.70
24091;DHT22;12272;52.426;17.100;2023-02-18T14:32:32;12.10;93.90
24091;DHT22;12272;52.426;17.100;2023-02-18T14:43:40;11.50;97.80
24091;DHT22;12272;52.426;17.100;2023-02-18T14:54:12;11.90;96.00
24091;DHT22;12272;52.426;17.100;2023-02-18T14:59:15;11.40;96.90
24091;DHT22;12272;52.426;17.100;2023-02-18T15:04:19;10.90;98.60
24091;DHT22;12272;52.426;17.100;2023-02-18T15:09:21;10.40;99.90
24091;DHT22;12272;52.426;17.100;2023-02-18T15:14:36;10.10;99.80
24091;DHT22;12272;52.426;17.100;2023-02-18T15:19:48;8.90;99.90
24091;DHT22;12272;52.426;17.100;2023-02-18T15:24:53;8.50;99.90
24091;DHT22;12272;52.426;17.100;2023-02-18T15:35:41;9.00;99.90
24091;DHT22;12272;52.426;17.100;2023-02-18T15:40:48;8.60;99.90
24091;DHT22;12272;52.426;17.100;2023-02-18T15:45:53;8.20;99.90
24091;DHT22;12272;52.426;17.100;2023-02-18T15:51:01;7.80;99.90
24091;DHT22;12272;52.426;17.100;2023-02-18T15:56:35;7.50;99.90
24091;DHT22;12272;52.426;17.100;2023-02-18T16:01:39;7.20;99.90
24091;DHT22;12272;52.426;17.100;2023-02-18T16:06:49;7.00;99.90
24091;DHT22;12272;52.426;17.100;2023-02-18T16:12:15;6.90;99.90
24091;DHT22;12272;52.426;17.100;2023-02-18T16:17:23;7.10;99.90
24091;DHT22;12272;52.426;17.100;2023-02-18T16:27:34;7.40;99.90
24091;DHT22;12272;52.426;17.100;2023-02-18T16:32:37;7.50;99.90
24091;DHT22;12272;52.426;17.100;2023-02-18T16:37:41;7.20;99.90
24091;DHT22;12272;52.426;17.100;2023-02-18T16:42:44;6.60;99.90
24091;DHT22;12272;52.426;17.100;2023-02-18T16:47:48;6.40;99.90
24091;DHT22;12272;52.426;17.100;2023-02-18T16:52:50;7.00;99.90
24091;DHT22;12272;52.426;17.100;2023-02-18T16:57:54;7.20;99.90
24091;DHT22;12272;52.426;17.100;2023-02-18T17:02:58;7.10;99.90
24091;DHT22;12272;52.426;17.100;2023-02-18T17:08:22;6.60;99.90
24091;DHT22;12272;52.426;17.100;2023-02-18T17:13:27;6.30;99.90
24091;DHT22;12272;52.426;17.100;2023-02-18T17:18:30;5.70;99.90
24091;DHT22;12272;52.426;17.100;2023-02-18T17:23:32;5.70;99.90
24091;DHT22;12272;52.426;17.100;2023-02-18T17:28:35;5.60;99.90
24091;DHT22;12272;52.426;17.100;2023-02-18T17:33:38;5.70;99.90
24091;DHT22;12272;52.426;17.100;2023-02-18T17:38:41;5.50;99.90
24091;DHT22;12272;52.426;17.100;2023-02-18T17:43:43;5.40;99.90
24091;DHT22;12272;52.426;17.100;2023-02-18T17:48:46;5.30;99.90
24091;DHT22;12272;52.426;17.100;2023-02-18T17:53:48;5.60;99.90
24091;DHT22;12272;52.426;17.100;2023-02-18T17:58:51;5.40;99.90
24091;DHT22;12272;52.426;17.100;2023-02-18T18:03:54;5.10;99.90
24091;DHT22;12272;52.426;17.100;2023-02-18T18:08:56;5.00;99.90
24091;DHT22;12272;52.426;17.100;2023-02-18T18:13:59;4.90;99.90
24091;DHT22;12272;52.426;17.100;2023-02-18T18:19:01;4.80;99.90
24091;DHT22;12272;52.426;17.100;2023-02-18T18:24:04;4.60;99.90
24091;DHT22;12272;52.426;17.100;2023-02-18T18:29:07;5.70;99.90
24091;DHT22;12272;52.426;17.100;2023-02-18T18:34:14;7.60;99.90
24091;DHT22;12272;52.426;17.100;2023-02-18T18:39:20;8.40;99.90
24091;DHT22;12272;52.426;17.100;2023-02-18T18:44:22;7.70;99.90
24091;DHT22;12272;52.426;17.100;2023-02-18T18:49:24;7.60;99.90
24091;DHT22;12272;52.426;17.100;2023-02-18T18:54:27;8.20;99.90
24091;DHT22;12272;52.426;17.100;2023-02-18T18:59:30;8.20;99.90
24091;DHT22;12272;52.426;17.100;2023-02-18T19:04:32;9.10;99.90
24091;DHT22;12272;52.426;17.100;2023-02-18T19:09:35;9.00;99.90
24091;DHT22;12272;52.426;17.100;2023-02-18T19:14:37;8.80;99.90
24091;DHT22;12272;52.426;17.100;2023-02-18T19:19:40;9.30;99.90
24091;DHT22;12272;52.426;17.100;2023-02-18T19:24:42;9.40;99.90
24091;DHT22;12272;52.426;17.100;2023-02-18T19:29:45;8.90;99.90
24091;DHT22;12272;52.426;17.100;2023-02-18T19:34:51;9.40;99.90
24091;DHT22;12272;52.426;17.100;2023-02-18T19:39:53;9.00;99.90
24091;DHT22;12272;52.426;17.100;2023-02-18T19:44:56;8.90;99.90
24091;DHT22;12272;52.426;17.100;2023-02-18T19:49:59;9.10;99.90
24091;DHT22;12272;52.426;17.100;2023-02-18T19:55:02;9.00;99.90
24091;DHT22;12272;52.426;17.100;2023-02-18T20:00:06;9.30;99.90
24091;DHT22;12272;52.426;17.100;2023-02-18T20:05:16;10.70;99.90
24091;DHT22;12272;52.426;17.100;2023-02-18T20:10:19;10.90;99.90
24091;DHT22;12272;52.426;17.100;2023-02-18T20:15:22;10.20;99.90
24091;DHT22;12272;52.426;17.100;2023-02-18T20:20:24;9.80;99.90
24091;DHT22;12272;52.426;17.100;2023-02-18T20:25:29;9.80;99.90
24091;DHT22;12272;52.426;17.100;2023-02-18T20:30:32;9.90;99.90
24091;DHT22;12272;52.426;17.100;2023-02-18T20:35:34;9.90;99.90
24091;DHT22;12272;52.426;17.100;2023-02-18T20:40:37;10.00;99.90
24091;DHT22;12272;52.426;17.100;2023-02-18T20:45:39;9.90;99.90
24091;DHT22;12272;52.426;17.100;2023-02-18T20:50:42;10.00;99.90
24091;DHT22;12272;52.426;17.100;2023-02-18T20:55:46;11.00;99.90
24091;DHT22;12272;52.426;17.100;2023-02-18T21:01:10;10.60;99.90
24091;DHT22;12272;52.426;17.100;2023-02-18T21:06:19;9.40;99.90
24091;DHT22;12272;52.426;17.100;2023-02-18T21:11:24;9.60;99.90
24091;DHT22;12272;52.426;17.100;2023-02-18T21:16:28;9.50;99.90
24091;DHT22;12272;52.426;17.100;2023-02-18T21:21:31;9.00;99.90
24091;DHT22;12272;52.426;17.100;2023-02-18T21:26:34;8.90;99.90
24091;DHT22;12272;52.426;17.100;2023-02-18T21:31:39;9.30;99.90
24091;DHT22;12272;52.426;17.100;2023-02-18T21:36:42;9.50;99.90
24091;DHT22;12272;52.426;17.100;2023-02-18T21:41:46;10.70;99.90
24091;DHT22;12272;52.426;17.100;2023-02-18T21:46:48;10.20;99.90
24091;DHT22;12272;52.426;17.100;2023-02-18T21:51:51;9.50;99.90
24091;DHT22;12272;52.426;17.100;2023-02-18T21:57:16;9.30;99.90
24091;DHT22;12272;52.426;17.100;2023-02-18T22:02:24;10.10;99.90
24091;DHT22;12272;52.426;17.100;2023-02-18T22:07:28;9.30;99.90
24091;DHT22;12272;52.426;17.100;2023-02-18T22:12:31;9.90;99.90
24091;DHT22;12272;52.426;17.100;2023-02-18T22:17:35;9.40;99.90
24091;DHT22;12272;52.426;17.100;2023-02-18T22:22:38;9.60;99.90
24091;DHT22;12272;52.426;17.100;2023-02-18T22:27:41;8.70;99.90
24091;DHT22;12272;52.426;17.100;2023-02-18T22:32:43;7.80;99.90
24091;DHT22;12272;52.426;17.100;2023-02-18T22:37:46;7.60;99.90
24091;DHT22;12272;52.426;17.100;2023-02-18T22:42:48;7.10;99.90
24091;DHT22;12272;52.426;17.100;2023-02-18T22:47:51;5.90;99.90
24091;DHT22;12272;52.426;17.100;2023-02-18T22:52:53;5.70;99.90
24091;DHT22;12272;52.426;17.100;2023-02-18T22:57:56;6.90;99.90
24091;DHT22;12272;52.426;17.100;2023-02-18T23:02:58;6.00;99.90
24091;DHT22;12272;52.426;17.100;2023-02-18T23:08:01;6.30;99.90
24091;DHT22;12272;52.426;17.100;2023-02-18T23:13:07;5.90;99.90
24091;DHT22;12272;52.426;17.100;2023-02-18T23:18:10;5.90;99.90
24091;DHT22;12272;52.426;17.100;2023-02-18T23:23:12;5.50;99.90
24091;DHT22;12272;52.426;17.100;2023-02-18T23:28:15;6.60;99.90
24091;DHT22;12272;52.426;17.100;2023-02-18T23:33:17;7.20;99.90
24091;DHT22;12272;52.426;17.100;2023-02-18T23:38:20;7.30;99.90
24091;DHT22;12272;52.426;17.100;2023-02-18T23:43:22;9.20;99.90
24091;DHT22;12272;52.426;17.100;2023-02-18T23:48:25;8.90;99.90
24091;DHT22;12272;52.426;17.100;2023-02-18T23:53:29;9.20;99.90
24091;DHT22;12272;52.426;17.100;2023-02-18T23:58:33;9.40;99.90
